Time;durP1;ratioP1;P1;durP2;ratioP2;P2;SDS_P1;SDS_P2;PMS_P1;PMS_P2;Temp;Humidity;BMP_temperature;BMP_pressure;BME280_temperature;BME280_humidity;BME280_pressure;Samples;Min_cycle;Max_cycle;Signal;HPM_P1;HPM_P2
2023/10/09 00:01:18;;;;;;;0.30;0.30;;;;;;;;;;4980358;28;20111;-92
2023/10/09 00:03:53;;;;;;;0.30;0.30;;;;;;;;;;4981444;28;20108;-93
2023/10/09 00:06:30;;;;;;;0.10;0.10;;;;;;;;;;4980980;28;20486;-92
2023/10/09 00:08:56;;;;;;;0.20;0.20;;;;;;;;;;4978394;28;20048;-93
2023/10/09 00:11:26;;;;;;;0.30;0.30;;;;;;;;;;4966860;28;20390;-93
2023/10/09 00:13:57;;;;;;;0.20;0.20;;;;;;;;;;4981807;28;20136;-92
2023/10/09 00:16:47;;;;;;;0.10;0.10;;;;;;;;;;4978359;28;20121;-93
2023/10/09 00:19:14;;;;;;;0.35;0.35;;;;;;;;;;4977682;28;20050;-93
2023/10/09 00:21:44;;;;;;;0.40;0.40;;;;;;;;;;4961305;28;20038;-93
2023/10/09 00:24:24;;;;;;;0.30;0.30;;;;;;;;;;4975776;28;20043;-92
2023/10/09 00:27:11;;;;;;;0.20;0.20;;;;;;;;;;4981969;28;20070;-93
2023/10/09 00:29:43;;;;;;;0.20;0.20;;;;;;;;;;4980744;28;20373;-93
2023/10/09 00:32:27;;;;;;;0.30;0.30;;;;;;;;;;4997425;28;20384;-92
2023/10/09 00:34:58;;;;;;;0.20;0.20;;;;;;;;;;4996871;28;20038;-93
2023/10/09 00:37:25;;;;;;;0.20;0.20;;;;;;;;;;4980938;28;20042;-92
2023/10/09 00:39:57;;;;;;;0.20;0.20;;;;;;;;;;4980598;28;20086;-93
2023/10/09 00:42:33;;;;;;;0.20;0.20;;;;;;;;;;4980223;28;20053;-93
2023/10/09 00:45:04;;;;;;;0.20;0.20;;;;;;;;;;4981155;28;20049;-94
2023/10/09 00:47:34;;;;;;;0.20;0.20;;;;;;;;;;4977339;28;20047;-95
2023/10/09 00:50:10;;;;;;;0.10;0.10;;;;;;;;;;4960743;28;20042;-93
2023/10/09 00:53:30;;;;;;;0.30;0.30;;;;;;;;;;4976670;28;20073;-92
2023/10/09 00:55:38;;;;;;;0.22;0.22;;;;;;;;;;4964112;28;20136;-92
2023/10/09 00:58:09;;;;;;;0.30;0.30;;;;;;;;;;4996398;28;20058;-94
2023/10/09 01:11:09;;;;;;;0.35;0.35;;;;;;;;;;4997292;28;20045;-92
2023/10/09 01:16:21;;;;;;;0.20;0.20;;;;;;;;;;4996699;28;20046;-93
2023/10/09 01:18:51;;;;;;;0.20;0.20;;;;;;;;;;4980236;28;20426;-91
2023/10/09 01:21:18;;;;;;;0.20;0.20;;;;;;;;;;4979514;28;20162;-94
2023/10/09 01:24:03;;;;;;;0.22;0.22;;;;;;;;;;4981118;28;20586;-93
2023/10/09 01:26:39;;;;;;;0.30;0.30;;;;;;;;;;4996761;28;20112;-93
2023/10/09 01:29:29;;;;;;;0.20;0.20;;;;;;;;;;4980585;28;20046;-93
2023/10/09 01:31:56;;;;;;;0.20;0.20;;;;;;;;;;4980649;28;20049;-93
2023/10/09 01:34:34;;;;;;;0.30;0.30;;;;;;;;;;4981802;28;20038;-92
2023/10/09 01:37:05;;;;;;;0.20;0.20;;;;;;;;;;4996400;28;20092;-90
2023/10/09 01:39:31;;;;;;;0.30;0.30;;;;;;;;;;4980960;28;20046;-93
2023/10/09 01:41:58;;;;;;;0.30;0.30;;;;;;;;;;4980184;28;20412;-93
2023/10/09 01:44:26;;;;;;;0.22;0.22;;;;;;;;;;4981242;28;20050;-91
2023/10/09 01:46:56;;;;;;;0.20;0.20;;;;;;;;;;4980623;28;20153;-91
2023/10/09 01:49:29;;;;;;;0.20;0.20;;;;;;;;;;4981247;28;20104;-93
2023/10/09 01:51:58;;;;;;;0.30;0.30;;;;;;;;;;4980411;28;20134;-91
2023/10/09 01:54:38;;;;;;;0.10;0.10;;;;;;;;;;4997182;28;20520;-92
2023/10/09 01:57:15;;;;;;;0.30;0.30;;;;;;;;;;4977245;28;20126;-93
2023/10/09 01:59:43;;;;;;;0.30;0.30;;;;;;;;;;4966397;28;20038;-92
2023/10/09 02:02:52;;;;;;;0.30;0.30;;;;;;;;;;4979092;28;20539;-93
2023/10/09 02:07:41;;;;;;;0.73;0.60;;;;;;;;;;4977385;28;20074;-93
2023/10/09 02:10:31;;;;;;;0.20;0.20;;;;;;;;;;4992744;28;20038;-92
2023/10/09 02:12:58;;;;;;;0.15;0.15;;;;;;;;;;4996898;28;20069;-93
2023/10/09 02:15:45;;;;;;;0.20;0.20;;;;;;;;;;4980461;28;20507;-91
2023/10/09 02:21:00;;;;;;;0.20;0.20;;;;;;;;;;4995796;28;20046;-92
2023/10/09 02:23:49;;;;;;;0.20;0.20;;;;;;;;;;4980332;28;20046;-92
2023/10/09 02:26:25;;;;;;;0.32;0.32;;;;;;;;;;4983312;28;20058;-92
2023/10/09 02:28:58;;;;;;;0.10;0.10;;;;;;;;;;4983346;28;20046;-93
2023/10/09 02:31:26;;;;;;;0.20;0.20;;;;;;;;;;4983108;28;20050;-92
2023/10/09 02:33:56;;;;;;;0.30;0.30;;;;;;;;;;4983731;28;20054;-93
2023/10/09 02:36:23;;;;;;;0.20;0.20;;;;;;;;;;4980826;28;20385;-92
2023/10/09 02:38:52;;;;;;;0.30;0.30;;;;;;;;;;4963794;28;20133;-92
2023/10/09 02:41:22;;;;;;;0.20;0.20;;;;;;;;;;4963504;28;20050;-91
2023/10/09 02:43:55;;;;;;;0.10;0.10;;;;;;;;;;4963270;28;20086;-94
2023/10/09 02:46:28;;;;;;;0.20;0.20;;;;;;;;;;4989345;28;20054;-92
2023/10/09 02:48:56;;;;;;;0.10;0.10;;;;;;;;;;4982425;28;20061;-92
2023/10/09 02:53:56;;;;;;;0.20;0.20;;;;;;;;;;4999453;28;20046;-93
2023/10/09 02:56:36;;;;;;;0.20;0.20;;;;;;;;;;4980319;28;20043;-93
2023/10/09 02:59:06;;;;;;;0.20;0.20;;;;;;;;;;4963777;28;20098;-93
2023/10/09 03:01:34;;;;;;;0.30;0.30;;;;;;;;;;4963667;28;20046;-92
2023/10/09 03:04:02;;;;;;;0.30;0.30;;;;;;;;;;4964227;28;20046;-93
2023/10/09 03:06:30;;;;;;;0.30;0.30;;;;;;;;;;4974237;28;20034;-94
2023/10/09 03:08:57;;;;;;;0.20;0.20;;;;;;;;;;4983110;28;20043;-93
2023/10/09 03:11:24;;;;;;;0.30;0.30;;;;;;;;;;4982880;28;20038;-93
2023/10/09 03:13:53;;;;;;;0.28;0.28;;;;;;;;;;4982911;28;20515;-93
2023/10/09 03:16:19;;;;;;;0.30;0.30;;;;;;;;;;4982062;28;20125;-93
2023/10/09 03:18:52;;;;;;;0.30;0.30;;;;;;;;;;4997739;28;20086;-94
2023/10/09 03:21:18;;;;;;;0.20;0.20;;;;;;;;;;4982087;28;20050;-92
2023/10/09 03:23:51;;;;;;;0.13;0.13;;;;;;;;;;4982960;28;20113;-92
2023/10/09 03:26:20;;;;;;;0.17;0.17;;;;;;;;;;4998664;28;20069;-94
2023/10/09 03:28:49;;;;;;;0.20;0.20;;;;;;;;;;4982009;28;20558;-93
2023/10/09 03:31:15;;;;;;;0.20;0.20;;;;;;;;;;4985279;28;20041;-93
2023/10/09 03:33:44;;;;;;;0.30;0.30;;;;;;;;;;4985616;28;20046;-93
2023/10/09 03:36:11;;;;;;;0.40;0.40;;;;;;;;;;4985015;28;20062;-93
2023/10/09 03:38:38;;;;;;;0.20;0.20;;;;;;;;;;4981909;28;20125;-93
2023/10/09 03:41:12;;;;;;;0.15;0.15;;;;;;;;;;4977712;28;20515;-94
2023/10/09 03:43:41;;;;;;;0.20;0.20;;;;;;;;;;4980894;28;20042;-93
2023/10/09 03:46:33;;;;;;;0.20;0.20;;;;;;;;;;4982312;28;20081;-94
2023/10/09 03:49:10;;;;;;;0.30;0.30;;;;;;;;;;4977801;28;20138;-94
2023/10/09 03:51:37;;;;;;;0.20;0.20;;;;;;;;;;4962023;28;20034;-93
2023/10/09 03:54:09;;;;;;;0.10;0.10;;;;;;;;;;4979551;28;20038;-92
2023/10/09 03:56:35;;;;;;;0.30;0.30;;;;;;;;;;4963476;28;20047;-91
2023/10/09 03:59:04;;;;;;;0.30;0.30;;;;;;;;;;4981295;28;20133;-91
2023/10/09 04:01:37;;;;;;;0.30;0.30;;;;;;;;;;4981530;28;20074;-91
2023/10/09 04:04:05;;;;;;;0.20;0.20;;;;;;;;;;4981720;28;20050;-92
2023/10/09 04:06:32;;;;;;;0.10;0.10;;;;;;;;;;4982373;28;20065;-91
2023/10/09 04:08:59;;;;;;;0.20;0.20;;;;;;;;;;4963045;28;20047;-92
2023/10/09 04:11:28;;;;;;;0.30;0.30;;;;;;;;;;4962417;28;20039;-92
2023/10/09 04:13:55;;;;;;;0.30;0.30;;;;;;;;;;4962778;28;20035;-92
2023/10/09 04:18:59;;;;;;;0.20;0.20;;;;;;;;;;4998355;28;20466;-94
2023/10/09 04:21:35;;;;;;;0.50;0.50;;;;;;;;;;4981024;28;20050;-93
2023/10/09 04:24:22;;;;;;;0.30;0.30;;;;;;;;;;4982011;28;20571;-94
2023/10/09 04:26:55;;;;;;;0.20;0.20;;;;;;;;;;4979165;28;20074;-91
2023/10/09 04:29:27;;;;;;;0.28;0.28;;;;;;;;;;4980661;28;20088;-94
2023/10/09 04:32:00;;;;;;;0.20;0.20;;;;;;;;;;4980122;28;20046;-93
2023/10/09 04:34:34;;;;;;;0.10;0.10;;;;;;;;;;4980712;28;20145;-94
2023/10/09 04:37:52;;;;;;;0.20;0.20;;;;;;;;;;4982221;28;20373;-93
2023/10/09 04:39:50;;;;;;;0.20;0.20;;;;;;;;;;4986951;28;20038;-92
2023/10/09 04:42:26;;;;;;;0.30;0.30;;;;;;;;;;4980093;28;20048;-93
2023/10/09 04:45:20;;;;;;;0.20;0.20;;;;;;;;;;4980899;28;20045;-93
2023/10/09 04:48:32;;;;;;;0.20;0.20;;;;;;;;;;4996420;28;20455;-94
2023/10/09 04:51:10;;;;;;;0.25;0.25;;;;;;;;;;4993994;28;20050;-93
2023/10/09 04:53:23;;;;;;;0.20;0.20;;;;;;;;;;4997267;28;20046;-94
2023/10/09 04:55:57;;;;;;;0.30;0.30;;;;;;;;;;4981631;28;20058;-93
2023/10/09 04:58:26;;;;;;;0.10;0.10;;;;;;;;;;4981662;28;20031;-93
2023/10/09 05:03:28;;;;;;;0.20;0.20;;;;;;;;;;4997214;28;20431;-96
2023/10/09 05:05:59;;;;;;;0.20;0.20;;;;;;;;;;4981911;28;20132;-94
2023/10/09 05:08:32;;;;;;;0.30;0.30;;;;;;;;;;4981815;28;20047;-93
2023/10/09 05:16:05;;;;;;;0.13;0.13;;;;;;;;;;4997695;28;20046;-96
2023/10/09 05:18:36;;;;;;;0.22;0.22;;;;;;;;;;4982105;28;20038;-96
2023/10/09 05:21:35;;;;;;;0.10;0.10;;;;;;;;;;4981852;28;20562;-93
2023/10/09 05:24:18;;;;;;;0.22;0.22;;;;;;;;;;4999429;28;20068;-94
2023/10/09 05:37:32;;;;;;;0.17;0.17;;;;;;;;;;4998278;28;20047;-92
2023/10/09 05:42:45;;;;;;;0.20;0.20;;;;;;;;;;4997455;28;20404;-92
2023/10/09 06:03:53;;;;;;;0.10;0.10;;;;;;;;;;5000617;28;20579;-95
2023/10/09 06:11:41;;;;;;;0.13;0.13;;;;;;;;;;5000530;28;20046;-92
2023/10/09 06:19:12;;;;;;;0.10;0.10;;;;;;;;;;4980955;28;20051;-94
2023/10/09 06:24:19;;;;;;;0.20;0.20;;;;;;;;;;4981777;28;20046;-93
2023/10/09 06:45:54;;;;;;;0.20;0.20;;;;;;;;;;4980290;28;20114;-93
2023/10/09 06:54:05;;;;;;;0.10;0.10;;;;;;;;;;4979800;28;19918;-93
2023/10/09 06:58:58;;;;;;;0.25;0.25;;;;;;;;;;4979599;28;20042;-93
2023/10/09 07:03:59;;;;;;;0.32;0.32;;;;;;;;;;4980836;28;20046;-93
2023/10/09 07:17:23;;;;;;;0.30;0.30;;;;;;;;;;4980636;28;20047;-93
2023/10/09 07:22:23;;;;;;;0.13;0.13;;;;;;;;;;4980149;28;20137;-93
2023/10/09 07:24:56;;;;;;;0.28;0.28;;;;;;;;;;4963147;28;20125;-92
2023/10/09 07:30:35;;;;;;;;;;;;;;;;;;4978744;28;20043;-93
2023/10/09 07:32:54;;;;;;;0.20;0.20;;;;;;;;;;4978811;28;19918;-92
2023/10/09 07:38:23;;;;;;;0.20;0.20;;;;;;;;;;4958499;28;20110;-93
2023/10/09 07:43:45;;;;;;;0.30;0.30;;;;;;;;;;4994227;28;20047;-93
2023/10/09 07:46:33;;;;;;;0.15;0.15;;;;;;;;;;4983270;28;20065;-92
2023/10/09 07:49:09;;;;;;;0.15;0.15;;;;;;;;;;4979762;28;20318;-93
2023/10/09 07:51:36;;;;;;;0.20;0.20;;;;;;;;;;4982221;28;20553;-93
2023/10/09 07:54:08;;;;;;;0.10;0.10;;;;;;;;;;4982013;28;20049;-93
2023/10/09 07:56:41;;;;;;;0.30;0.30;;;;;;;;;;4981430;28;20041;-93
2023/10/09 07:59:11;;;;;;;0.28;0.28;;;;;;;;;;4994665;28;20121;-93
2023/10/09 08:02:02;;;;;;;0.10;0.10;;;;;;;;;;4978400;28;20053;-93
2023/10/09 08:04:37;;;;;;;0.20;0.20;;;;;;;;;;4977999;28;20064;-93
2023/10/09 08:07:08;;;;;;;0.10;0.10;;;;;;;;;;4981248;28;20050;-95
2023/10/09 08:09:48;;;;;;;0.20;0.20;;;;;;;;;;4982224;28;20039;-93
2023/10/09 08:17:58;;;;;;;0.30;0.30;;;;;;;;;;4999205;28;20084;-91
2023/10/09 08:21:19;;;;;;;0.10;0.10;;;;;;;;;;4982601;28;20136;-92
2023/10/09 08:23:49;;;;;;;0.10;0.10;;;;;;;;;;4996847;28;20057;-93
2023/10/09 08:26:28;;;;;;;0.20;0.20;;;;;;;;;;4981568;28;20042;-93
2023/10/09 08:29:15;;;;;;;0.10;0.10;;;;;;;;;;4979380;28;20062;-93
2023/10/09 08:31:46;;;;;;;0.20;0.20;;;;;;;;;;4994510;28;20074;-93
2023/10/09 08:34:48;;;;;;;0.10;0.10;;;;;;;;;;4978468;28;20034;-94
2023/10/09 08:37:04;;;;;;;0.20;0.20;;;;;;;;;;4992200;28;20042;-96
2023/10/09 08:39:35;;;;;;;0.13;0.13;;;;;;;;;;4982735;28;20069;-95
2023/10/09 08:42:02;;;;;;;0.10;0.10;;;;;;;;;;4977981;28;20045;-92
2023/10/09 08:44:32;;;;;;;0.30;0.30;;;;;;;;;;4981782;28;20377;-92
2023/10/09 08:46:59;;;;;;;0.15;0.15;;;;;;;;;;4981121;28;20030;-92
2023/10/09 08:49:29;;;;;;;0.15;0.15;;;;;;;;;;4978265;28;20035;-94
2023/10/09 08:51:56;;;;;;;0.17;0.17;;;;;;;;;;4968714;28;20050;-92
2023/10/09 08:54:22;;;;;;;0.20;0.20;;;;;;;;;;4972726;28;20517;-92
2023/10/09 08:56:51;;;;;;;0.30;0.30;;;;;;;;;;4982902;28;20035;-93
2023/10/09 08:59:18;;;;;;;0.10;0.10;;;;;;;;;;4999501;28;20043;-93
2023/10/09 09:01:48;;;;;;;0.20;0.20;;;;;;;;;;4983389;28;20081;-93
2023/10/09 09:04:34;;;;;;;0.20;0.20;;;;;;;;;;4975058;28;20042;-95
2023/10/09 09:07:02;;;;;;;;;;;;;;;;;;4999104;28;20070;-93
2023/10/09 09:09:32;;;;;;;0.15;0.15;;;;;;;;;;4979689;28;19917;-85
2023/10/09 09:11:59;;;;;;;0.13;0.13;;;;;;;;;;4992754;28;20053;-89
2023/10/09 09:14:38;;;;;;;0.10;0.10;;;;;;;;;;4962330;28;20046;-88
2023/10/09 09:17:05;;;;;;;0.10;0.10;;;;;;;;;;4991891;28;20046;-87
2023/10/09 09:19:36;;;;;;;0.20;0.20;;;;;;;;;;4977080;28;20042;-87
2023/10/09 09:22:14;;;;;;;0.20;0.20;;;;;;;;;;4971419;28;20078;-90
2023/10/09 09:25:00;;;;;;;0.30;0.30;;;;;;;;;;4959584;28;20101;-88
2023/10/09 09:27:49;;;;;;;0.20;0.20;;;;;;;;;;4965697;28;20077;-87
2023/10/09 09:30:26;;;;;;;0.20;0.20;;;;;;;;;;4983786;28;20514;-88
2023/10/09 09:33:15;;;;;;;0.10;0.10;;;;;;;;;;4977928;28;20038;-87
2023/10/09 09:35:39;;;;;;;0.10;0.10;;;;;;;;;;4995640;28;20042;-87
2023/10/09 09:38:06;;;;;;;0.20;0.20;;;;;;;;;;4980991;28;20038;-88
2023/10/09 09:40:41;;;;;;;0.25;0.25;;;;;;;;;;4967516;28;20089;-88
2023/10/09 09:43:21;;;;;;;0.20;0.20;;;;;;;;;;4979289;28;20031;-88
2023/10/09 09:45:49;;;;;;;0.15;0.15;;;;;;;;;;4997896;28;20042;-88
2023/10/09 09:48:16;;;;;;;0.17;0.17;;;;;;;;;;4980570;28;20081;-87
2023/10/09 09:50:47;;;;;;;0.20;0.20;;;;;;;;;;4979482;28;20503;-87
2023/10/09 09:53:16;;;;;;;0.20;0.20;;;;;;;;;;4977575;28;20084;-88
2023/10/09 09:55:55;;;;;;;0.30;0.30;;;;;;;;;;4976524;28;20050;-88
2023/10/09 09:58:23;;;;;;;0.20;0.20;;;;;;;;;;4975849;28;20065;-87
2023/10/09 10:00:54;;;;;;;0.10;0.10;;;;;;;;;;4978757;28;20046;-86
2023/10/09 10:03:27;;;;;;;0.13;0.13;;;;;;;;;;4980706;28;20099;-88
2023/10/09 10:05:56;;;;;;;0.20;0.20;;;;;;;;;;4980645;28;20042;-88
2023/10/09 10:08:31;;;;;;;0.10;0.10;;;;;;;;;;4980882;28;20042;-88
2023/10/09 10:11:06;;;;;;;0.15;0.15;;;;;;;;;;4981223;28;20081;-87
2023/10/09 10:13:41;;;;;;;0.20;0.20;;;;;;;;;;4997321;28;20045;-87
2023/10/09 10:16:20;;;;;;;0.13;0.13;;;;;;;;;;4997233;28;20039;-87
2023/10/09 10:18:54;;;;;;;0.10;0.10;;;;;;;;;;4980703;28;20050;-88
2023/10/09 10:24:11;;;;;;;0.10;0.10;;;;;;;;;;4996189;28;20046;-87
2023/10/09 10:26:37;;;;;;;0.10;0.10;;;;;;;;;;4994745;28;20050;-88
2023/10/09 10:29:32;;;;;;;0.10;0.10;;;;;;;;;;4979636;28;20511;-87
2023/10/09 10:32:08;;;;;;;0.13;0.13;;;;;;;;;;4995548;28;20054;-88
2023/10/09 10:35:06;;;;;;;0.10;0.10;;;;;;;;;;4976226;28;20126;-87
2023/10/09 10:37:39;;;;;;;0.17;0.17;;;;;;;;;;4963697;28;20039;-89
2023/10/09 10:40:13;;;;;;;0.10;0.10;;;;;;;;;;4996048;28;20054;-86
2023/10/09 10:43:09;;;;;;;0.25;0.25;;;;;;;;;;4977357;28;20053;-88
2023/10/09 10:45:35;;;;;;;;;;;;;;;;;;4977642;28;20583;-90
2023/10/09 10:48:07;;;;;;;0.10;0.10;;;;;;;;;;4961204;28;19930;-87
2023/10/09 10:53:15;;;;;;;0.17;0.17;;;;;;;;;;4997939;28;20073;-89
2023/10/09 10:55:58;;;;;;;0.10;0.10;;;;;;;;;;4979313;28;20030;-87
2023/10/09 10:58:24;;;;;;;0.20;0.20;;;;;;;;;;4975620;28;20061;-87
2023/10/09 11:03:29;;;;;;;0.32;0.32;;;;;;;;;;4997138;28;20097;-88
2023/10/09 11:05:55;;;;;;;0.10;0.10;;;;;;;;;;4980590;28;20096;-87
2023/10/09 11:08:31;;;;;;;0.20;0.20;;;;;;;;;;4976490;28;20070;-87
2023/10/09 11:11:15;;;;;;;0.10;0.10;;;;;;;;;;4977630;28;20041;-86
2023/10/09 11:13:53;;;;;;;0.20;0.20;;;;;;;;;;4977873;28;20526;-88
2023/10/09 11:16:41;;;;;;;0.20;0.20;;;;;;;;;;4978733;28;20041;-90
2023/10/09 11:19:31;;;;;;;0.00;0.00;;;;;;;;;;4970309;28;20093;-89
2023/10/09 11:24:35;;;;;;;0.10;0.10;;;;;;;;;;4982547;28;20066;-87
2023/10/09 11:27:06;;;;;;;0.20;0.20;;;;;;;;;;4977705;28;20046;-86
2023/10/09 11:32:18;;;;;;;0.20;0.20;;;;;;;;;;4993029;28;20050;-87
2023/10/09 11:34:51;;;;;;;0.10;0.10;;;;;;;;;;4977456;28;20089;-87
2023/10/09 11:37:38;;;;;;;0.25;0.25;;;;;;;;;;4991716;28;20062;-87
2023/10/09 11:40:21;;;;;;;0.28;0.28;;;;;;;;;;4976429;28;20042;-87
2023/10/09 11:42:49;;;;;;;0.20;0.20;;;;;;;;;;4972910;28;20411;-88
2023/10/09 11:45:24;;;;;;;0.13;0.13;;;;;;;;;;4977233;28;20055;-88
2023/10/09 11:47:57;;;;;;;0.10;0.10;;;;;;;;;;4972321;28;20170;-88
2023/10/09 11:50:43;;;;;;;0.20;0.20;;;;;;;;;;4977070;28;20039;-87
2023/10/09 11:53:32;;;;;;;0.20;0.20;;;;;;;;;;4974409;28;20034;-87
2023/10/09 11:55:58;;;;;;;0.00;0.00;;;;;;;;;;4978743;28;20034;-88
2023/10/09 11:58:24;;;;;;;0.20;0.20;;;;;;;;;;4975457;28;20045;-86
2023/10/09 12:00:51;;;;;;;0.22;0.22;;;;;;;;;;4994007;28;20483;-86
2023/10/09 12:03:21;;;;;;;0.15;0.15;;;;;;;;;;4976375;28;20097;-88
2023/10/09 12:05:48;;;;;;;0.20;0.20;;;;;;;;;;4970371;28;20042;-87
2023/10/09 12:08:16;;;;;;;0.10;0.10;;;;;;;;;;4970906;28;20045;-87
2023/10/09 12:10:42;;;;;;;0.20;0.20;;;;;;;;;;4966098;28;20043;-87
2023/10/09 12:13:09;;;;;;;0.20;0.20;;;;;;;;;;4975122;28;20046;-87
2023/10/09 12:15:37;;;;;;;0.22;0.22;;;;;;;;;;4968376;28;20057;-87
2023/10/09 12:18:06;;;;;;;0.30;0.30;;;;;;;;;;4973203;28;20121;-88
2023/10/09 12:20:33;;;;;;;0.10;0.10;;;;;;;;;;4978746;28;20042;-87
2023/10/09 12:22:59;;;;;;;0.08;0.08;;;;;;;;;;4978910;28;20038;-88
2023/10/09 12:25:26;;;;;;;0.10;0.10;;;;;;;;;;4994997;28;20042;-88
2023/10/09 12:27:55;;;;;;;0.10;0.10;;;;;;;;;;4976637;28;20129;-86
2023/10/09 12:30:26;;;;;;;0.25;0.25;;;;;;;;;;4972472;28;20070;-85
2023/10/09 12:32:53;;;;;;;0.30;0.30;;;;;;;;;;4975315;28;20105;-87
2023/10/09 12:35:19;;;;;;;0.20;0.20;;;;;;;;;;4990924;28;20503;-87
2023/10/09 12:37:47;;;;;;;0.20;0.20;;;;;;;;;;4976774;28;20040;-87
2023/10/09 12:40:13;;;;;;;0.20;0.20;;;;;;;;;;4973886;28;20112;-86
2023/10/09 12:42:40;;;;;;;0.20;0.20;;;;;;;;;;4977353;28;20046;-87
2023/10/09 12:45:09;;;;;;;0.13;0.13;;;;;;;;;;4977372;28;20049;-88
2023/10/09 12:47:38;;;;;;;0.13;0.13;;;;;;;;;;4972545;28;20434;-87
2023/10/09 12:50:13;;;;;;;0.10;0.10;;;;;;;;;;4985019;28;20127;-87
2023/10/09 12:52:39;;;;;;;0.17;0.17;;;;;;;;;;4975947;28;20070;-87
2023/10/09 12:55:09;;;;;;;0.20;0.20;;;;;;;;;;4970238;28;20053;-86
2023/10/09 12:57:36;;;;;;;0.20;0.20;;;;;;;;;;4965744;28;20102;-87
2023/10/09 13:00:10;;;;;;;0.20;0.20;;;;;;;;;;4966046;28;20043;-86
2023/10/09 13:02:43;;;;;;;0.10;0.10;;;;;;;;;;4972141;28;20129;-86
2023/10/09 13:05:16;;;;;;;0.10;0.10;;;;;;;;;;4976271;28;20050;-86
2023/10/09 13:07:44;;;;;;;0.17;0.17;;;;;;;;;;4976881;28;20052;-86
2023/10/09 13:10:12;;;;;;;0.20;0.20;;;;;;;;;;4974406;28;20130;-87
2023/10/09 13:12:41;;;;;;;0.20;0.20;;;;;;;;;;4993383;28;20044;-87
2023/10/09 13:15:09;;;;;;;0.00;0.00;;;;;;;;;;4972190;28;20114;-87
2023/10/09 13:17:36;;;;;;;0.10;0.10;;;;;;;;;;4989592;28;20050;-87
2023/10/09 13:20:12;;;;;;;0.10;0.10;;;;;;;;;;4992183;28;20456;-85
2023/10/09 13:22:38;;;;;;;0.10;0.10;;;;;;;;;;4973462;28;20035;-83
2023/10/09 13:25:05;;;;;;;0.10;0.10;;;;;;;;;;4972387;28;20038;-86
2023/10/09 13:27:34;;;;;;;0.15;0.15;;;;;;;;;;4974074;28;20088;-88
2023/10/09 13:30:05;;;;;;;0.15;0.15;;;;;;;;;;4976903;28;20053;-88
2023/10/09 13:32:35;;;;;;;0.10;0.10;;;;;;;;;;4977392;28;20086;-86
2023/10/09 13:35:05;;;;;;;0.10;0.10;;;;;;;;;;4971889;28;20053;-86
2023/10/09 13:37:36;;;;;;;0.20;0.20;;;;;;;;;;4986731;28;20050;-84
2023/10/09 13:40:09;;;;;;;0.20;0.20;;;;;;;;;;4974916;28;20039;-85
2023/10/09 13:42:35;;;;;;;0.15;0.15;;;;;;;;;;4970417;28;20045;-84
2023/10/09 13:45:15;;;;;;;0.20;0.20;;;;;;;;;;4977111;28;20045;-84
2023/10/09 13:47:44;;;;;;;0.22;0.22;;;;;;;;;;4971926;28;20138;-85
2023/10/09 13:50:10;;;;;;;0.20;0.20;;;;;;;;;;4967298;28;20034;-84
2023/10/09 13:52:39;;;;;;;0.10;0.10;;;;;;;;;;4977001;28;20356;-83
2023/10/09 13:55:15;;;;;;;0.30;0.30;;;;;;;;;;4967860;28;20556;-85
2023/10/09 13:57:45;;;;;;;0.10;0.10;;;;;;;;;;4975754;28;20088;-84
2023/10/09 14:00:11;;;;;;;0.10;0.10;;;;;;;;;;4992137;28;20049;-85
2023/10/09 14:02:42;;;;;;;0.17;0.17;;;;;;;;;;4969841;28;20133;-85
2023/10/09 14:05:08;;;;;;;0.10;0.10;;;;;;;;;;4972646;28;20129;-85
2023/10/09 14:07:34;;;;;;;0.17;0.17;;;;;;;;;;4975570;28;20050;-86
2023/10/09 14:10:07;;;;;;;0.10;0.10;;;;;;;;;;4972528;28;20061;-84
2023/10/09 14:12:34;;;;;;;0.15;0.15;;;;;;;;;;4966570;28;20034;-84
2023/10/09 14:15:03;;;;;;;0.20;0.20;;;;;;;;;;4967935;28;20084;-85
2023/10/09 14:17:29;;;;;;;0.20;0.20;;;;;;;;;;4976038;28;20469;-84
2023/10/09 14:20:00;;;;;;;0.15;0.15;;;;;;;;;;4989291;28;20076;-85
2023/10/09 14:22:26;;;;;;;0.10;0.10;;;;;;;;;;4975436;28;20044;-85
2023/10/09 14:24:56;;;;;;;0.10;0.10;;;;;;;;;;4979367;28;20050;-84
2023/10/09 14:27:29;;;;;;;0.20;0.20;;;;;;;;;;4977410;28;20042;-85
2023/10/09 14:29:56;;;;;;;0.20;0.20;;;;;;;;;;4960909;28;20050;-85
2023/10/09 14:32:33;;;;;;;0.20;0.20;;;;;;;;;;4993684;28;20062;-85
2023/10/09 14:35:03;;;;;;;0.15;0.15;;;;;;;;;;4977217;28;20062;-83
2023/10/09 14:37:29;;;;;;;0.20;0.20;;;;;;;;;;4971150;28;20522;-85
2023/10/09 14:39:58;;;;;;;0.17;0.17;;;;;;;;;;4992937;28;20044;-86
2023/10/09 14:42:27;;;;;;;0.10;0.10;;;;;;;;;;4977199;28;20129;-85
2023/10/09 14:44:55;;;;;;;0.20;0.20;;;;;;;;;;4974870;28;20096;-86
2023/10/09 14:47:21;;;;;;;0.20;0.20;;;;;;;;;;4974878;28;20053;-84
2023/10/09 14:49:48;;;;;;;0.10;0.10;;;;;;;;;;4969471;28;20046;-85
2023/10/09 14:52:20;;;;;;;0.30;0.30;;;;;;;;;;4971405;28;20121;-85
2023/10/09 14:54:47;;;;;;;0.13;0.13;;;;;;;;;;4978532;28;20052;-84
2023/10/09 14:57:14;;;;;;;0.20;0.20;;;;;;;;;;4983504;28;20040;-85
2023/10/09 14:59:42;;;;;;;0.10;0.10;;;;;;;;;;4974094;28;20038;-85
2023/10/09 15:02:12;;;;;;;0.10;0.10;;;;;;;;;;4991511;28;20058;-85
2023/10/09 15:04:38;;;;;;;0.20;0.20;;;;;;;;;;4971359;28;20038;-84
2023/10/09 15:07:06;;;;;;;0.00;0.00;;;;;;;;;;4976829;28;20074;-85
2023/10/09 15:09:36;;;;;;;0.25;0.25;;;;;;;;;;4978400;28;20070;-83
2023/10/09 15:12:02;;;;;;;0.10;0.10;;;;;;;;;;4974751;28;20126;-86
2023/10/09 15:14:29;;;;;;;0.22;0.22;;;;;;;;;;4973584;28;20034;-87
2023/10/09 15:16:56;;;;;;;0.20;0.20;;;;;;;;;;4973190;28;20069;-85
2023/10/09 15:19:29;;;;;;;0.20;0.20;;;;;;;;;;4977473;28;20125;-88
2023/10/09 15:21:55;;;;;;;0.20;0.20;;;;;;;;;;4973627;28;20177;-87
2023/10/09 15:24:22;;;;;;;0.00;0.00;;;;;;;;;;4975895;28;20046;-86
2023/10/09 15:26:57;;;;;;;0.10;0.10;;;;;;;;;;4976191;28;20053;-85
2023/10/09 15:29:28;;;;;;;0.00;0.00;;;;;;;;;;4992946;28;20591;-85
2023/10/09 15:32:07;;;;;;;0.10;0.10;;;;;;;;;;4967798;28;20058;-87
2023/10/09 15:34:35;;;;;;;0.20;0.20;;;;;;;;;;4975798;28;20381;-88
2023/10/09 15:37:13;;;;;;;0.10;0.10;;;;;;;;;;4997500;28;20039;-91
2023/10/09 15:39:39;;;;;;;0.20;0.20;;;;;;;;;;4982044;28;20062;-90
2023/10/09 15:42:06;;;;;;;0.10;0.10;;;;;;;;;;4979588;28;20035;-88
2023/10/09 15:44:38;;;;;;;0.10;0.10;;;;;;;;;;4977479;28;20034;-88
2023/10/09 15:47:08;;;;;;;0.20;0.20;;;;;;;;;;4978185;28;20403;-91
2023/10/09 15:49:44;;;;;;;;;;;;;;;;;;;;;
2023/10/09 15:52:53;;;;;;;;;;;;;;;;;;;;;
2023/10/09 15:58:53;;;;;;;0.20;0.20;;;;;;;;;;4997642;28;20081;-92
2023/10/09 16:01:42;;;;;;;0.20;0.20;;;;;;;;;;4974607;28;20050;-90
2023/10/09 16:04:44;;;;;;;;;;;;;;;;;;;;;
2023/10/09 16:07:45;;;;;;;0.13;0.13;;;;;;;;;;4964058;28;20053;-91
2023/10/09 16:13:53;;;;;;;0.10;0.10;;;;;;;;;;4998630;28;20383;-93
2023/10/09 16:16:41;;;;;;;0.10;0.10;;;;;;;;;;4981671;28;20153;-91
2023/10/09 16:19:56;;;;;;;0.20;0.20;;;;;;;;;;4997258;28;20052;-92
2023/10/09 16:23:19;;;;;;;0.20;0.20;;;;;;;;;;4982860;28;20122;-91
2023/10/09 16:26:26;;;;;;;;;;;;;;;;;;;;;
2023/10/09 16:29:19;;;;;;;0.15;0.15;;;;;;;;;;4990694;28;20030;-91
2023/10/09 16:31:55;;;;;;;0.10;0.10;;;;;;;;;;5009816;28;20070;-90
2023/10/09 16:34:25;;;;;;;0.20;0.20;;;;;;;;;;4978029;28;20057;-91
2023/10/09 16:36:52;;;;;;;0.10;0.10;;;;;;;;;;4963116;28;20043;-92
2023/10/09 16:39:22;;;;;;;0.13;0.13;;;;;;;;;;4971663;28;20042;-92
2023/10/09 16:41:49;;;;;;;0.25;0.25;;;;;;;;;;4973656;28;20129;-92
2023/10/09 16:44:17;;;;;;;0.20;0.20;;;;;;;;;;4976807;28;20100;-92
2023/10/09 16:46:47;;;;;;;0.30;0.30;;;;;;;;;;4978870;28;20046;-93
2023/10/09 16:49:18;;;;;;;0.20;0.20;;;;;;;;;;4981086;28;20072;-92
2023/10/09 16:51:44;;;;;;;0.10;0.10;;;;;;;;;;4981353;28;20049;-92
2023/10/09 16:54:16;;;;;;;0.22;0.22;;;;;;;;;;4981728;28;20131;-93
2023/10/09 16:56:44;;;;;;;0.17;0.17;;;;;;;;;;4995666;28;20069;-93
2023/10/09 16:59:16;;;;;;;0.10;0.10;;;;;;;;;;4974405;28;20492;-92
2023/10/09 17:01:44;;;;;;;0.10;0.10;;;;;;;;;;4975018;28;20046;-92
2023/10/09 17:04:16;;;;;;;0.08;0.08;;;;;;;;;;4994557;28;20042;-92
2023/10/09 17:06:47;;;;;;;0.20;0.20;;;;;;;;;;4976687;28;20136;-92
2023/10/09 17:09:19;;;;;;;0.30;0.30;;;;;;;;;;4987932;28;20048;-94
2023/10/09 17:11:51;;;;;;;0.20;0.20;;;;;;;;;;4991732;28;20073;-95
2023/10/09 17:14:20;;;;;;;0.30;0.30;;;;;;;;;;4973701;28;20106;-92
2023/10/09 17:16:47;;;;;;;0.30;0.30;;;;;;;;;;4979585;28;20069;-93
2023/10/09 17:19:14;;;;;;;0.10;0.10;;;;;;;;;;4995211;28;20046;-94
2023/10/09 17:21:40;;;;;;;0.10;0.10;;;;;;;;;;4974078;28;20049;-91
2023/10/09 17:24:10;;;;;;;0.30;0.30;;;;;;;;;;4976286;28;20052;-93
2023/10/09 17:26:41;;;;;;;0.17;0.17;;;;;;;;;;4978230;28;20042;-92
2023/10/09 17:29:10;;;;;;;0.17;0.17;;;;;;;;;;4974509;28;20077;-94
2023/10/09 17:31:39;;;;;;;0.20;0.20;;;;;;;;;;4972755;28;20703;-91
2023/10/09 17:34:07;;;;;;;0.20;0.20;;;;;;;;;;4976261;28;20059;-92
2023/10/09 17:36:33;;;;;;;0.30;0.30;;;;;;;;;;4977433;28;20514;-92
2023/10/09 17:39:04;;;;;;;0.15;0.15;;;;;;;;;;4974616;28;20048;-92
2023/10/09 17:41:32;;;;;;;0.20;0.20;;;;;;;;;;4978577;28;20050;-94
2023/10/09 17:43:59;;;;;;;0.20;0.20;;;;;;;;;;4977853;28;20048;-93
2023/10/09 17:46:25;;;;;;;0.20;0.20;;;;;;;;;;4962713;28;20038;-93
2023/10/09 17:48:51;;;;;;;0.15;0.15;;;;;;;;;;4978709;28;20030;-94
2023/10/09 17:51:18;;;;;;;0.13;0.13;;;;;;;;;;4978190;28;20064;-90
2023/10/09 17:53:47;;;;;;;0.15;0.15;;;;;;;;;;4994526;28;20046;-93
2023/10/09 17:56:13;;;;;;;0.03;0.03;;;;;;;;;;4982091;28;20022;-92